Time;durP1;ratioP1;P1;durP2;ratioP2;P2;SDS_P1;SDS_P2;PMS_P1;PMS_P2;Temp;Humidity;BMP_temperature;BMP_pressure;BME280_temperature;BME280_humidity;BME280_pressure;Samples;Min_cycle;Max_cycle;Signal;HPM_P1;HPM_P2
2022/06/14 00:00:58;;;;;;;3.10;1.30;;;12.80;52.60;;;12.77;69.11;101539.94;5030624;28;20478;-74
2022/06/14 00:03:33;;;;;;;2.80;1.43;;;12.80;99.90;;;12.71;68.73;101546.16;5027324;28;20448;-74
2022/06/14 00:06:07;;;;;;;2.07;1.47;;;12.70;99.90;;;12.62;68.24;101535.47;5027030;28;20547;-76
2022/06/14 00:08:39;;;;;;;4.43;1.87;;;12.60;99.90;;;12.57;68.18;101540.66;5015296;28;20443;-76
2022/06/14 00:11:12;;;;;;;2.87;1.60;;;12.60;99.90;;;12.54;67.87;101540.19;5029293;28;20460;-74
2022/06/14 00:13:41;;;;;;;4.70;2.17;;;12.50;99.90;;;12.44;68.12;101543.28;5014867;28;20467;-74
2022/06/14 00:16:11;;;;;;;1.83;1.10;;;12.50;99.90;;;12.37;67.84;101547.84;5009671;28;20441;-76
2022/06/14 00:18:41;;;;;;;1.20;1.00;;;12.40;99.90;;;12.47;67.61;101542.06;5010777;28;20520;-75
2022/06/14 00:21:10;;;;;;;1.53;1.07;;;12.40;90.30;;;12.50;67.39;101557.94;5011159;28;20824;-75
2022/06/14 00:23:41;;;;;;;3.30;1.53;;;12.50;99.90;;;12.51;67.21;101551.47;5011174;28;20946;-75
2022/06/14 00:26:12;;;;;;;1.90;1.40;;;12.40;99.90;;;12.58;66.44;101550.50;5011392;28;20423;-75
2022/06/14 00:28:44;;;;;;;1.73;1.47;;;12.50;99.90;;;12.56;66.19;101563.41;5009949;28;20810;-75
2022/06/14 00:31:17;;;;;;;2.03;1.23;;;12.50;99.90;;;12.55;65.85;101559.00;5010920;28;20448;-75
2022/06/14 00:33:47;;;;;;;3.23;1.80;;;12.50;99.90;;;12.58;65.63;101555.91;5011228;28;20410;-75
2022/06/14 00:36:24;;;;;;;3.07;1.50;;;12.50;99.90;;;12.64;65.40;101557.81;5011193;28;20434;-73
2022/06/14 00:38:55;;;;;;;3.30;1.33;;;12.50;99.90;;;12.60;65.42;101548.41;5015037;28;20783;-74
2022/06/14 00:41:39;;;;;;;3.97;1.60;;;12.60;99.90;;;12.54;65.19;101553.78;5013535;28;20453;-73
2022/06/14 00:44:15;;;;;;;2.70;1.47;;;12.50;99.90;;;12.44;65.12;101559.56;5014980;28;20508;-73
2022/06/14 00:46:57;;;;;;;1.20;0.90;;;12.40;99.90;;;12.32;65.27;101557.59;5014409;28;20447;-75
2022/06/14 00:49:31;;;;;;;1.23;1.13;;;12.30;72.00;;;12.15;65.62;101551.66;5014412;28;20410;-73
2022/06/14 00:52:07;;;;;;;3.10;1.20;;;12.20;79.60;;;12.15;65.31;101551.66;5014141;28;20452;-74
2022/06/14 00:54:44;;;;;;;1.67;1.27;;;12.10;83.50;;;12.05;65.43;101553.84;5014530;28;20406;-75
2022/06/14 00:57:20;;;;;;;7.87;1.50;;;12.10;91.50;;;12.07;65.29;101551.75;5014739;28;20404;-74
2022/06/14 00:59:54;;;;;;;1.98;1.50;;;12.00;85.60;;;11.93;65.30;101544.56;5014605;28;20447;-74
2022/06/14 01:02:31;;;;;;;6.10;1.70;;;11.90;47.70;;;11.85;65.49;101550.13;5014454;28;20749;-75
2022/06/14 01:05:05;;;;;;;3.30;1.23;;;11.90;39.30;;;11.87;65.27;101545.31;5015271;28;20184;-74
2022/06/14 01:07:40;;;;;;;2.07;1.30;;;11.90;32.40;;;11.84;65.56;101549.28;5014994;28;20398;-73
2022/06/14 01:10:18;;;;;;;2.50;1.43;;;11.80;13.60;;;11.79;65.71;101548.19;5014563;28;20417;-75
2022/06/14 01:12:54;;;;;;;9.30;1.43;;;11.80;4.20;;;11.68;65.78;101558.47;5014804;28;20943;-74
2022/06/14 01:15:26;;;;;;;4.20;1.50;;;11.70;1.00;;;11.59;66.08;101559.63;5014234;28;20427;-74
2022/06/14 01:18:09;;;;;;;2.17;1.27;;;11.60;28.90;;;11.62;66.16;101563.81;5014405;28;20413;-74
2022/06/14 01:20:39;;;;;;;2.50;1.25;;;11.60;6.40;;;11.47;66.43;101561.19;5014652;28;20417;-73
2022/06/14 01:23:16;;;;;;;2.40;1.13;;;11.50;37.80;;;11.47;66.63;101565.75;5014167;28;20276;-75
2022/06/14 01:25:51;;;;;;;5.53;2.10;;;11.50;10.10;;;11.47;66.56;101568.47;5013980;28;20305;-75
2022/06/14 01:28:26;;;;;;;1.88;1.30;;;11.50;27.20;;;11.51;66.54;101567.91;5013996;28;20424;-73
2022/06/14 01:30:56;;;;;;;2.40;1.30;;;11.50;50.50;;;11.38;66.85;101559.59;5014012;28;20174;-74
2022/06/14 01:33:33;;;;;;;2.97;1.27;;;11.40;23.20;;;11.39;66.81;101566.69;5013122;28;20244;-72
2022/06/14 01:36:09;;;;;;;3.75;0.98;;;11.40;13.80;;;11.38;66.85;101562.31;5014094;28;20468;-73
2022/06/14 01:38:43;;;;;;;2.92;1.50;;;11.40;11.00;;;11.35;66.91;101562.69;5016513;28;20179;-74
2022/06/14 01:41:32;;;;;;;3.57;1.93;;;11.40;8.50;;;11.39;66.80;101557.72;5015880;28;20236;-73
2022/06/14 01:44:24;;;;;;;2.75;1.00;;;11.30;22.00;;;11.27;67.21;101566.38;5012710;28;20820;-73
2022/06/14 01:47:10;;;;;;;1.75;1.42;;;11.30;35.80;;;11.21;67.37;101571.69;5014296;28;20213;-73
2022/06/14 01:52:55;;;;;;;5.40;1.25;;;11.20;43.90;;;11.11;67.95;101573.88;5013472;28;20205;-74
2022/06/14 01:55:37;;;;;;;3.08;1.40;;;11.10;28.40;;;11.17;67.63;101568.53;5012032;28;20198;-74
2022/06/14 01:58:20;;;;;;;3.38;1.15;;;11.10;38.50;;;11.15;67.88;101577.88;5014006;28;20578;-73
2022/06/14 02:00:57;;;;;;;3.97;1.50;;;11.10;37.40;;;11.08;68.11;101568.84;5012182;28;20233;-73
2022/06/14 02:06:33;;;;;;;3.13;1.33;;;11.10;28.10;;;11.08;68.29;101574.25;5012922;28;20229;-74
2022/06/14 02:09:11;;;;;;;4.00;1.20;;;11.00;24.30;;;11.07;68.37;101572.56;5013080;28;20174;-74
2022/06/14 02:11:42;;;;;;;2.45;1.05;;;11.00;28.90;;;10.94;68.49;101584.06;5013170;28;20328;-75
2022/06/14 02:14:22;;;;;;;2.33;1.50;;;11.00;34.20;;;10.99;68.57;101583.53;5013096;28;20170;-73
2022/06/14 02:16:59;;;;;;;2.60;1.40;;;11.00;41.90;;;10.91;68.77;101589.84;5013109;28;20597;-74
2022/06/14 02:19:39;;;;;;;4.70;1.42;;;10.90;49.20;;;10.83;69.37;101592.66;5013179;28;20220;-72
2022/06/14 02:22:14;;;;;;;2.40;1.52;;;10.90;50.30;;;10.81;69.35;101586.59;5012885;28;20209;-73
2022/06/14 02:24:52;;;;;;;1.88;1.73;;;10.90;57.30;;;10.85;69.30;101591.44;5012873;28;20182;-73
2022/06/14 02:27:30;;;;;;;2.03;1.13;;;10.90;63.90;;;10.75;69.65;101587.31;5012769;28;20233;-74
2022/06/14 02:30:09;;;;;;;2.58;1.90;;;10.90;93.70;;;10.74;70.03;101588.38;5013037;28;20178;-73
2022/06/14 02:32:46;;;;;;;6.45;1.67;;;10.80;68.50;;;10.81;69.90;101598.25;5012872;28;20209;-74
2022/06/14 02:35:22;;;;;;;3.22;1.25;;;10.80;62.90;;;10.75;69.80;101590.88;5014689;28;20181;-73
2022/06/14 02:37:59;;;;;;;3.80;1.60;;;10.80;54.10;;;10.73;70.09;101592.94;5018162;28;20190;-74
2022/06/14 02:40:37;;;;;;;2.15;1.42;;;10.80;78.80;;;10.73;70.35;101587.53;5018716;28;20182;-75
2022/06/14 02:43:15;;;;;;;4.53;1.42;;;10.70;99.90;;;10.70;70.34;101587.88;5018985;28;20209;-74
2022/06/14 02:45:50;;;;;;;2.65;1.20;;;10.70;65.10;;;10.70;70.83;101596.00;5015004;28;20198;-73
2022/06/14 02:48:27;;;;;;;3.45;1.20;;;10.70;99.90;;;10.69;70.75;101591.66;5014791;28;20512;-75
2022/06/14 02:51:05;;;;;;;3.67;2.00;;;10.70;99.90;;;10.76;70.44;101595.28;5016633;28;20182;-73
2022/06/14 02:53:42;;;;;;;2.75;1.38;;;10.70;99.90;;;10.88;69.81;101591.09;5012965;28;20174;-74
2022/06/14 02:56:19;;;;;;;3.88;1.98;;;10.80;99.90;;;10.90;69.99;101597.13;5012674;28;20204;-74
2022/06/14 02:58:58;;;;;;;1.65;1.55;;;10.90;1.00;;;10.86;70.17;101595.00;5012648;28;20170;-75
2022/06/14 03:01:34;;;;;;;2.05;1.60;;;10.90;1.00;;;10.93;70.06;101593.22;5011361;28;20256;-74
2022/06/14 03:04:14;;;;;;;3.90;2.40;;;10.90;1.00;;;10.92;70.38;101590.69;5012426;28;20572;-74
2022/06/14 03:06:58;;;;;;;4.45;1.60;;;10.90;99.90;;;11.02;70.25;101594.81;5012763;28;20174;-73
2022/06/14 03:09:31;;;;;;;2.35;1.60;;;10.90;99.90;;;11.13;69.68;101599.75;5012579;28;20182;-74
2022/06/14 03:12:18;;;;;;;3.20;1.38;;;11.00;99.90;;;11.14;69.57;101597.84;5012596;28;20770;-75
2022/06/14 03:15:06;;;;;;;3.25;1.60;;;11.00;1.00;;;11.20;69.76;101597.94;5012529;28;20166;-74
2022/06/14 03:17:58;;;;;;;6.22;1.40;;;11.00;1.00;;;11.34;69.12;101599.78;5012470;28;20197;-74
2022/06/14 03:20:46;;;;;;;8.63;2.67;;;11.10;1.00;;;11.42;68.80;101607.00;5012171;28;20202;-73
2022/06/14 03:23:30;;;;;;;5.63;1.70;;;11.20;99.90;;;11.43;68.83;101607.81;5012977;28;20625;-74
2022/06/14 03:26:06;;;;;;;2.28;1.88;;;11.20;99.90;;;11.48;68.64;101606.22;5012799;28;20460;-73
2022/06/14 03:28:44;;;;;;;6.53;1.38;;;11.30;99.90;;;11.52;68.68;101606.69;5013040;28;20210;-75
2022/06/14 03:31:28;;;;;;;2.45;1.58;;;11.30;99.90;;;11.47;68.93;101604.56;5011797;28;20264;-73
2022/06/14 03:34:05;;;;;;;4.40;1.75;;;11.30;99.90;;;11.47;68.89;101609.97;5011825;28;20174;-75
2022/06/14 03:36:34;;;;;;;4.05;2.03;;;11.30;99.90;;;11.48;69.05;101611.63;5011930;28;20209;-74
2022/06/14 03:39:09;;;;;;;2.73;1.73;;;11.30;99.90;;;11.56;68.30;101603.41;5012236;28;20190;-75
2022/06/14 03:41:44;;;;;;;1.63;1.30;;;11.30;1.00;;;11.56;68.76;101606.13;5011542;28;20441;-72
2022/06/14 03:44:17;;;;;;;2.05;1.20;;;11.30;1.00;;;11.58;68.70;101611.31;5011600;28;20456;-73
2022/06/14 03:47:08;;;;;;;2.97;1.77;;;11.30;1.00;;;11.63;68.70;101617.84;5011887;28;20190;-73
2022/06/14 03:49:39;;;;;;;3.90;1.60;;;11.40;1.00;;;11.84;68.15;101608.09;5011671;28;20236;-73
2022/06/14 03:52:24;;;;;;;2.00;1.43;;;11.50;1.00;;;11.81;68.26;101608.50;5010329;28;20672;-74
2022/06/14 03:55:07;;;;;;;3.35;1.75;;;11.50;89.40;;;12.16;67.01;101613.00;5012115;28;20680;-75
2022/06/14 03:58:02;;;;;;;3.63;1.67;;;11.70;99.90;;;12.90;65.28;101619.63;5011825;28;20236;-74
2022/06/14 04:00:47;;;;;;;6.77;2.47;;;11.90;99.90;;;13.54;62.82;101621.22;5013588;28;20221;-74
2022/06/14 04:03:48;;;;;;;5.73;1.70;;;12.50;1.00;;;14.46;60.36;101613.22;5015622;28;20409;-73
2022/06/14 04:06:34;;;;;;;4.23;1.90;;;13.00;14.70;;;15.01;58.24;101626.31;5014425;28;20500;-74
2022/06/14 04:09:19;;;;;;;8.17;2.23;;;13.50;99.90;;;15.15;57.28;101627.94;5012587;28;20916;-74
2022/06/14 04:12:00;;;;;;;3.10;1.73;;;13.80;99.90;;;15.10;57.66;101625.03;5013581;28;20449;-75
2022/06/14 04:14:51;;;;;;;4.30;1.50;;;13.90;61.10;;;14.85;57.85;101624.06;5015292;28;20413;-73
2022/06/14 04:17:32;;;;;;;5.07;1.60;;;14.00;1.00;;;14.08;59.94;101630.13;5015618;28;20422;-72
2022/06/14 04:20:16;;;;;;;4.67;1.53;;;13.60;99.90;;;13.86;60.60;101634.06;5015552;28;20823;-74
2022/06/14 04:23:02;;;;;;;6.30;2.37;;;13.30;99.90;;;14.08;60.12;101629.28;5015095;28;20436;-74
2022/06/14 04:25:40;;;;;;;6.10;1.83;;;13.30;1.00;;;13.94;60.56;101639.31;5015544;28;20464;-73
2022/06/14 04:28:20;;;;;;;1.90;1.70;;;13.20;99.90;;;13.80;60.98;101632.97;5015310;28;20416;-76
2022/06/14 04:31:00;;;;;;;4.00;2.00;;;13.20;1.00;;;14.26;59.95;101622.19;5015051;28;20908;-76
2022/06/14 04:33:39;;;;;;;3.87;1.93;;;13.30;1.00;;;15.10;57.60;101635.13;5018050;28;20423;-75
2022/06/14 04:36:16;;;;;;;5.13;1.53;;;13.60;1.00;;;16.08;55.15;101634.66;5016808;28;20504;-74
2022/06/14 04:38:52;;;;;;;1.47;1.30;;;14.20;1.00;;;16.65;53.96;101640.97;5019722;28;20720;-75
2022/06/14 04:41:29;;;;;;;3.83;1.80;;;14.70;99.90;;;17.16;52.48;101635.19;5018441;28;20415;-74
2022/06/14 04:44:08;;;;;;;1.90;1.30;;;15.10;99.90;;;16.94;52.28;101633.97;5018159;28;20483;-74
2022/06/14 04:46:44;;;;;;;1.67;1.20;;;15.40;99.90;;;16.85;53.13;101627.94;5020927;28;20510;-74
2022/06/14 04:49:21;;;;;;;2.83;1.50;;;15.50;99.90;;;17.20;51.75;101627.34;5022610;28;20413;-74
2022/06/14 04:51:59;;;;;;;7.27;1.67;;;15.70;99.90;;;17.04;52.29;101622.50;5014659;28;20448;-74
2022/06/14 04:54:38;;;;;;;6.57;1.87;;;15.70;1.00;;;17.74;50.71;101621.84;5013716;28;20986;-72
2022/06/14 04:57:12;;;;;;;3.43;1.70;;;15.90;1.00;;;16.22;53.68;101623.63;5014527;28;20413;-72
2022/06/14 04:59:48;;;;;;;2.40;1.80;;;15.50;1.00;;;15.78;54.69;101625.41;5014291;28;20417;-76
2022/06/14 05:02:24;;;;;;;3.80;1.33;;;15.30;99.90;;;15.79;54.99;101627.06;5014632;28;20449;-75
2022/06/14 05:04:59;;;;;;;3.33;2.13;;;15.10;1.00;;;16.69;53.00;101628.53;5014023;28;20502;-72
2022/06/14 05:07:38;;;;;;;3.73;1.77;;;15.30;1.00;;;16.41;53.09;101636.31;5014255;28;20459;-73
2022/06/14 05:10:15;;;;;;;2.97;1.53;;;15.20;1.00;;;16.15;53.04;101628.31;5014108;28;20615;-73
2022/06/14 05:12:53;;;;;;;9.60;2.07;;;15.10;1.00;;;15.25;55.58;101632.16;5014512;28;20709;-73
2022/06/14 05:15:28;;;;;;;4.67;1.80;;;14.90;99.90;;;15.79;54.93;101624.34;5012992;28;20801;-74
2022/06/14 05:18:04;;;;;;;2.57;1.70;;;14.90;1.00;;;16.14;53.33;101621.19;5013732;28;20440;-73
2022/06/14 05:20:44;;;;;;;4.50;1.60;;;15.10;1.00;;;16.68;52.08;101621.38;5032888;28;20569;-74
2022/06/14 05:23:24;;;;;;;1.97;1.70;;;15.30;1.00;;;16.05;53.69;101620.63;5033438;28;20489;-74
2022/06/14 05:26:10;;;;;;;2.93;1.37;;;15.10;1.00;;;14.94;56.55;101630.97;5033082;28;20468;-73
2022/06/14 05:28:56;;;;;;;4.30;1.80;;;14.70;1.00;;;14.68;57.88;101625.53;5033441;28;20412;-73
2022/06/14 05:31:43;;;;;;;3.30;2.37;;;14.40;1.00;;;14.70;57.91;101629.75;5033508;28;20419;-74
2022/06/14 05:34:21;;;;;;;5.20;1.70;;;14.30;1.00;;;15.20;56.29;101624.59;5033859;28;20504;-72
2022/06/14 05:37:03;;;;;;;9.60;2.00;;;14.40;1.00;;;15.45;55.91;101632.88;5033524;28;20458;-72
2022/06/14 05:39:44;;;;;;;8.10;1.60;;;14.50;99.90;;;14.86;57.22;101630.34;5032672;28;20918;-73
2022/06/14 05:42:19;;;;;;;6.00;2.03;;;14.40;92.00;;;14.91;57.55;101628.63;5033292;28;20444;-74
2022/06/14 05:44:55;;;;;;;4.40;1.43;;;14.40;1.00;;;14.56;58.36;101630.81;5032720;28;20430;-73
2022/06/14 05:47:33;;;;;;;8.50;2.67;;;14.30;99.90;;;14.70;58.08;101623.47;5033247;28;20417;-73
2022/06/14 05:50:10;;;;;;;4.90;1.60;;;14.40;1.00;;;14.91;57.98;101630.56;5033109;28;20387;-73
2022/06/14 05:52:49;;;;;;;4.53;1.90;;;14.40;1.00;;;14.73;58.26;101631.19;5032925;28;20443;-72
2022/06/14 05:55:26;;;;;;;5.40;1.80;;;14.40;1.00;;;14.91;58.09;101634.09;5032510;28;20383;-74
2022/06/14 05:58:02;;;;;;;2.00;1.50;;;14.40;99.90;;;15.24;57.33;101631.31;5032618;28;20408;-74
2022/06/14 06:00:43;;;;;;;4.63;1.80;;;14.60;99.90;;;15.26;57.32;101636.50;5031546;28;20480;-74
2022/06/14 06:03:23;;;;;;;6.43;1.57;;;14.80;1.00;;;14.71;57.45;101641.47;5032073;28;20478;-73
2022/06/14 06:06:00;;;;;;;7.40;1.73;;;14.60;99.90;;;14.84;57.94;101636.00;5032612;28;20454;-73
2022/06/14 06:08:39;;;;;;;3.50;1.80;;;14.60;1.00;;;15.21;56.97;101645.34;5032601;28;20423;-73
2022/06/14 06:11:17;;;;;;;2.07;1.17;;;14.80;1.00;;;14.83;57.76;101650.69;5028670;28;20452;-73
2022/06/14 06:13:53;;;;;;;4.57;1.40;;;14.70;99.90;;;14.74;57.36;101652.78;5033596;28;20383;-74
2022/06/14 06:16:34;;;;;;;5.37;1.30;;;14.60;1.00;;;15.11;57.72;101651.25;5033607;28;20412;-75
2022/06/14 06:19:09;;;;;;;5.00;2.20;;;14.70;1.00;;;15.87;56.05;101647.84;5033835;28;20416;-72
2022/06/14 06:21:49;;;;;;;3.70;2.20;;;15.20;99.90;;;16.26;54.33;101654.94;5030632;28;20456;-73
2022/06/14 06:24:28;;;;;;;4.37;1.73;;;15.60;1.00;;;15.90;54.01;101666.50;5031913;28;20482;-74
2022/06/14 06:27:05;;;;;;;3.23;1.50;;;15.60;1.00;;;15.44;55.14;101662.03;5030518;28;20841;-72
2022/06/14 06:29:43;;;;;;;3.90;1.60;;;15.30;1.00;;;15.05;56.23;101665.75;5031646;28;20391;-75
2022/06/14 06:32:12;;;;;;;2.53;1.30;;;14.90;1.00;;;15.28;55.29;101675.34;5026101;28;20513;-75
2022/06/14 06:34:43;;;;;;;5.13;2.37;;;15.00;1.00;;;15.57;55.25;101669.38;5017687;28;20859;-74
2022/06/14 06:37:21;;;;;;;2.63;1.63;;;15.10;1.00;;;16.03;54.32;101672.69;5018292;28;20425;-74
2022/06/14 06:39:59;;;;;;;4.23;1.87;;;15.30;1.00;;;16.43;53.55;101675.16;5018887;28;20403;-74
2022/06/14 06:42:36;;;;;;;7.53;2.10;;;15.80;1.00;;;15.89;54.17;101687.47;5022402;28;20455;-76
2022/06/14 06:45:14;;;;;;;3.47;1.50;;;15.70;1.00;;;15.92;54.58;101678.88;5039728;28;20496;-75
2022/06/14 06:47:49;;;;;;;2.97;1.73;;;15.60;1.00;;;15.62;54.91;101683.22;5030649;28;20476;-75
2022/06/14 06:50:25;;;;;;;4.43;1.40;;;15.50;1.00;;;15.07;56.78;101679.16;5029504;28;20439;-74
2022/06/14 06:53:03;;;;;;;5.23;1.47;;;15.10;1.00;;;15.89;54.78;101668.38;5029251;28;20505;-74
2022/06/14 06:55:45;;;;;;;8.60;1.83;;;15.40;1.00;;;15.93;54.82;101680.53;5037247;28;20812;-75
2022/06/14 06:58:25;;;;;;;5.80;2.13;;;15.40;1.00;;;16.20;53.60;101692.16;5050213;28;20402;-74
2022/06/14 07:00:58;;;;;;;8.13;1.63;;;15.80;1.00;;;16.40;53.04;101678.34;5046683;28;20428;-77
2022/06/14 07:03:38;;;;;;;3.53;1.70;;;15.90;1.00;;;16.23;52.84;101685.41;5014112;28;20430;-75
2022/06/14 07:06:14;;;;;;;6.17;1.73;;;15.90;1.00;;;16.23;53.30;101679.94;5011027;28;20186;-74
2022/06/14 07:08:56;;;;;;;3.03;1.47;;;15.90;1.00;;;15.66;54.27;101684.44;5023171;28;20922;-75
2022/06/14 07:11:34;;;;;;;5.00;1.40;;;15.70;1.00;;;15.57;54.43;101681.13;5030046;28;20448;-74
2022/06/14 07:14:12;;;;;;;5.03;1.70;;;15.50;1.00;;;16.06;53.49;101685.94;5012786;28;20449;-75
2022/06/14 07:16:52;;;;;;;2.60;1.47;;;15.70;1.00;;;16.57;52.45;101690.41;5010413;28;20423;-74
2022/06/14 07:19:29;;;;;;;3.33;1.43;;;16.00;1.00;;;16.71;51.79;101689.25;5010332;28;20823;-74
2022/06/14 07:22:08;;;;;;;7.77;3.07;;;16.20;1.00;;;16.35;52.41;101700.03;5010143;28;20427;-74
2022/06/14 07:24:59;;;;;;;4.27;1.50;;;16.10;1.00;;;15.64;53.94;101692.00;5010312;28;20429;-74
2022/06/14 07:27:51;;;;;;;5.10;1.57;;;15.60;1.00;;;15.68;53.78;101687.81;5008953;28;21026;-75
2022/06/14 07:30:29;;;;;;;4.13;1.30;;;15.60;1.00;;;15.68;53.43;101696.00;5029644;28;20401;-74
2022/06/14 07:33:02;;;;;;;5.90;1.57;;;15.60;1.00;;;15.66;54.15;101700.81;5047455;28;20460;-74
2022/06/14 07:35:39;;;;;;;6.43;1.33;;;15.50;1.00;;;15.68;53.20;101693.28;5049733;28;20419;-74
2022/06/14 07:38:18;;;;;;;2.93;1.33;;;15.50;1.00;;;15.83;53.41;101696.53;5031115;28;20517;-73
2022/06/14 07:40:59;;;;;;;6.03;1.80;;;15.60;1.00;;;15.32;54.92;101699.22;5023509;28;20474;-74
2022/06/14 07:43:37;;;;;;;5.00;1.37;;;15.30;1.00;;;15.62;53.73;101705.03;5028274;28;20439;-74
2022/06/14 07:46:14;;;;;;;5.27;1.83;;;15.40;1.00;;;15.60;53.78;101701.69;5029428;28;20470;-75
2022/06/14 07:48:52;;;;;;;5.80;1.40;;;15.40;1.00;;;15.15;55.10;101693.38;5028508;28;20440;-75
2022/06/14 07:51:29;;;;;;;6.37;1.80;;;15.10;1.00;;;15.69;53.92;101683.16;5028675;28;20848;-74
2022/06/14 07:54:06;;;;;;;5.07;1.33;;;15.30;1.00;;;16.20;52.63;101685.84;5022250;28;20740;-75
2022/06/14 07:56:48;;;;;;;4.13;1.80;;;15.70;1.00;;;16.56;52.35;101693.34;5010335;28;20408;-74
2022/06/14 07:59:25;;;;;;;3.20;1.57;;;16.00;1.00;;;15.98;52.88;101688.06;5009943;28;20425;-73
2022/06/14 08:02:03;;;;;;;7.17;1.77;;;15.90;1.00;;;16.31;52.48;101680.53;5010202;28;20427;-74
2022/06/14 08:04:42;;;;;;;3.00;1.20;;;16.10;1.00;;;16.55;51.08;101692.53;5010344;28;20428;-75
2022/06/14 08:07:15;;;;;;;3.53;1.50;;;16.10;1.00;;;16.52;50.28;101698.41;5019275;28;20894;-75
2022/06/14 08:09:52;;;;;;;5.40;1.80;;;16.20;1.00;;;15.99;51.56;101696.03;5020210;28;20493;-74
2022/06/14 08:12:33;;;;;;;3.10;1.40;;;16.00;1.00;;;16.16;50.68;101690.91;5014484;28;21117;-74
2022/06/14 08:15:09;;;;;;;2.70;1.47;;;16.00;1.00;;;16.96;49.74;101683.78;5029048;28;20461;-75
2022/06/14 08:17:49;;;;;;;6.43;2.17;;;16.40;1.00;;;16.93;47.91;101690.53;5027568;28;20475;-74
2022/06/14 08:20:26;;;;;;;3.10;1.23;;;16.60;1.00;;;16.43;49.47;101692.41;5023414;28;20407;-74
2022/06/14 08:23:01;;;;;;;3.97;1.37;;;16.30;1.00;;;16.38;49.06;101681.28;5020072;28;21007;-74
2022/06/14 08:25:36;;;;;;;2.80;1.00;;;16.30;1.00;;;16.74;48.97;101697.03;5031301;28;20431;-73
2022/06/14 08:28:15;;;;;;;3.40;1.43;;;16.50;1.00;;;16.73;48.30;101694.50;5017228;28;20416;-75
2022/06/14 08:30:57;;;;;;;3.97;1.10;;;16.50;1.00;;;17.01;47.91;101686.66;5015902;28;20916;-75
2022/06/14 08:33:37;;;;;;;2.70;1.20;;;16.60;1.00;;;16.55;48.38;101689.81;5019417;28;20899;-73
2022/06/14 08:36:14;;;;;;;3.50;1.20;;;16.50;1.00;;;17.09;47.83;101691.03;5022673;28;20866;-73
2022/06/14 08:38:50;;;;;;;4.53;1.30;;;16.60;1.00;;;17.78;46.84;101686.03;5020594;28;20477;-73
2022/06/14 08:42:00;;;;;;;3.30;1.60;;;17.10;1.00;;;18.02;46.78;101680.63;5023807;28;20499;-74
2022/06/14 08:44:36;;;;;;;4.80;1.17;;;17.20;1.00;;;18.00;45.00;101683.63;5018685;28;20445;-73
2022/06/14 08:47:39;;;;;;;3.33;1.10;;;17.60;1.00;;;18.41;44.98;101696.50;5026999;28;20475;-74
2022/06/14 08:50:56;;;;;;;5.60;1.57;;;17.80;1.00;;;18.41;43.63;101696.50;5028852;28;20431;-74
2022/06/14 08:54:18;;;;;;;4.20;1.20;;;17.90;5.20;;;17.48;45.17;101690.56;5029568;28;20405;-75
2022/06/14 08:57:09;;;;;;;2.30;1.30;;;17.50;4.60;;;18.10;44.74;101689.41;5029826;28;20411;-74
2022/06/14 09:00:11;;;;;;;7.07;1.23;;;17.60;5.90;;;18.74;43.12;101685.00;5031268;28;20405;-73
2022/06/14 09:03:43;;;;;;;4.63;0.80;;;18.30;4.80;;;18.04;43.63;101675.78;5015775;28;20472;-75
2022/06/14 09:07:03;;;;;;;1.73;1.27;;;18.00;3.20;;;18.25;42.40;101688.94;5020477;28;20443;-74
2022/06/14 09:10:23;;;;;;;3.83;1.63;;;18.30;1.30;;;17.32;42.50;101692.03;5018840;28;20873;-75
2022/06/14 09:13:31;;;;;;;3.80;1.40;;;17.60;1.00;;;17.77;42.42;101673.38;5014272;28;20476;-74
2022/06/14 09:16:37;;;;;;;2.77;0.80;;;17.60;1.00;;;17.97;42.49;101683.25;5019986;28;20437;-74
2022/06/14 09:19:35;;;;;;;2.30;1.00;;;17.70;1.00;;;17.95;41.67;101688.97;5023543;28;20462;-75
2022/06/14 09:22:25;;;;;;;3.93;1.60;;;17.90;1.00;;;17.83;41.81;101676.28;5043050;28;20430;-75
2022/06/14 09:25:08;;;;;;;2.60;1.10;;;17.60;1.00;;;17.91;41.58;101678.72;5033282;28;20419;-74
2022/06/14 09:28:26;;;;;;;1.47;0.87;;;17.80;1.00;;;18.03;40.84;101671.38;5032067;28;20978;-75
2022/06/14 09:31:22;;;;;;;1.30;1.00;;;18.00;1.00;;;18.51;39.77;101663.88;5032773;28;20417;-74
2022/06/14 09:34:40;;;;;;;2.90;0.90;;;18.20;1.00;;;18.61;39.92;101675.13;5019607;28;20462;-73
2022/06/14 09:37:55;;;;;;;2.30;1.00;;;18.40;1.00;;;18.44;40.88;101674.13;5023170;28;20447;-75
2022/06/14 09:41:00;;;;;;;1.90;1.00;;;18.30;1.00;;;18.15;41.42;101683.22;5033436;28;20439;-75
2022/06/14 09:44:17;;;;;;;3.33;1.17;;;18.00;1.00;;;18.44;41.48;101674.13;5032524;28;20425;-72
2022/06/14 09:47:16;;;;;;;4.50;1.00;;;18.00;1.00;;;18.79;41.16;101681.56;5028619;28;20455;-77
2022/06/14 09:50:33;;;;;;;2.47;1.10;;;18.20;1.00;;;18.43;41.76;101691.63;5031275;28;20440;-76
2022/06/14 09:53:39;;;;;;;4.47;1.20;;;18.20;1.00;;;18.50;41.98;101684.13;5011308;28;20445;-77
2022/06/14 09:57:15;;;;;;;4.30;1.33;;;18.20;1.00;;;17.99;43.24;101692.91;5032940;28;20566;-76
2022/06/14 10:00:29;;;;;;;3.87;1.60;;;17.90;1.00;;;18.18;42.75;101696.44;5014003;28;20436;-75
2022/06/14 10:03:49;;;;;;;4.43;1.23;;;18.00;1.00;;;18.20;43.38;101694.31;5032906;28;20438;-75
2022/06/14 10:06:59;;;;;;;3.07;1.47;;;17.90;1.00;;;18.26;43.55;101704.31;5009923;28;20808;-74
2022/06/14 10:09:55;;;;;;;3.60;1.20;;;18.00;1.00;;;18.71;43.01;101695.63;5033059;28;20523;-76
2022/06/14 10:12:48;;;;;;;2.73;2.50;;;18.20;1.00;;;18.49;42.94;101698.88;5031474;28;20435;-76
2022/06/14 10:15:29;;;;;;;4.57;1.57;;;18.30;1.00;;;18.57;42.74;101704.06;5034367;28;20391;-75
2022/06/14 10:18:35;;;;;;;2.33;1.47;;;18.30;1.00;;;19.09;42.19;101690.53;5039925;28;20439;-76
2022/06/14 10:21:13;;;;;;;2.70;0.90;;;18.50;1.00;;;19.30;41.64;101686.34;5037884;28;20513;-75
2022/06/14 10:24:11;;;;;;;5.27;1.23;;;18.90;1.00;;;19.94;40.92;101690.75;5037864;28;20466;-76
2022/06/14 10:30:13;;;;;;;2.30;0.90;;;19.00;1.00;;;19.20;41.23;101681.44;5032967;28;20481;-75
2022/06/14 10:33:20;;;;;;;2.63;1.03;;;18.80;1.00;;;18.92;41.74;101689.56;5048373;28;20511;-76
2022/06/14 10:36:09;;;;;;;3.17;0.97;;;18.80;1.00;;;19.53;40.57;101684.41;5032566;28;20403;-77
2022/06/14 10:39:15;;;;;;;3.37;1.43;;;19.00;1.00;;;19.66;40.71;101687.94;5032656;28;20412;-76
2022/06/14 10:41:59;;;;;;;2.63;1.50;;;19.10;1.00;;;19.96;39.71;101683.06;5032864;28;20535;-77
2022/06/14 10:44:42;;;;;;;2.70;1.10;;;19.40;1.00;;;19.51;40.35;101688.44;5033369;28;20759;-77
2022/06/14 10:47:30;;;;;;;4.07;1.47;;;19.30;1.00;;;19.00;41.51;101689.22;5032321;28;20446;-76
2022/06/14 10:50:35;;;;;;;1.20;0.80;;;19.00;1.00;;;18.10;42.83;101696.78;5033604;28;20489;-76
2022/06/14 10:53:24;;;;;;;2.87;1.23;;;18.30;1.00;;;18.56;42.58;101690.59;5033850;28;20513;-75
2022/06/14 10:56:28;;;;;;;1.80;1.13;;;18.30;1.00;;;18.95;42.02;101689.09;5033773;28;20431;-76
2022/06/14 10:59:31;;;;;;;1.87;0.90;;;18.50;1.00;;;19.49;40.77;101693.38;5032881;28;20523;-77
2022/06/14 11:02:22;;;;;;;3.70;1.93;;;19.00;1.00;;;19.73;40.44;101688.66;5033113;28;20462;-75
2022/06/14 11:05:07;;;;;;;4.97;1.33;;;19.30;1.00;;;19.17;40.66;101690.16;5017647;28;20510;-74
2022/06/14 11:08:10;;;;;;;2.13;1.33;;;19.10;1.00;;;18.77;41.29;101683.72;5031698;28;20442;-74
2022/06/14 11:11:23;;;;;;;2.20;1.30;;;18.70;1.00;;;19.14;40.77;101676.06;5034853;28;20912;-77
2022/06/14 11:14:12;;;;;;;2.03;1.20;;;18.90;1.00;;;19.17;41.25;101683.84;5032228;28;20422;-74
2022/06/14 11:17:07;;;;;;;1.70;1.00;;;18.80;1.00;;;19.06;41.71;101694.59;5031702;28;20432;-75
2022/06/14 11:19:56;;;;;;;5.30;1.67;;;18.80;1.00;;;19.36;41.41;101686.22;5031971;28;20407;-75
2022/06/14 11:22:40;;;;;;;2.37;1.17;;;19.00;1.00;;;19.63;40.54;101678.28;5031596;28;20878;-74
2022/06/14 11:25:30;;;;;;;3.83;1.47;;;19.30;1.00;;;20.44;39.92;101679.03;5031504;28;20490;-74
2022/06/14 11:28:12;;;;;;;1.10;0.70;;;19.70;1.00;;;20.56;39.39;101683.38;5029805;28;20845;-75
2022/06/14 11:30:53;;;;;;;4.70;1.33;;;19.80;1.00;;;19.60;40.35;101680.69;5030367;28;20414;-74
2022/06/14 11:34:21;;;;;;;2.57;1.50;;;19.40;1.00;;;19.68;39.33;101675.66;5031877;28;20911;-74